sensor_id;sensor_type;location;lat;lon;timestamp;P1;durP1;ratioP1;P2;durP2;ratioP2
76117;SDS011;64851;50.232;20.364;2022-11-20T08:51:05;50.30;;;29.20;;
76117;SDS011;64851;50.232;20.364;2022-11-20T08:54:00;48.50;;;30.50;;
76117;SDS011;64851;50.232;20.364;2022-11-20T08:56:35;43.60;;;27.10;;
76117;SDS011;64851;50.232;20.364;2022-11-20T08:59:30;44.60;;;25.40;;
76117;SDS011;64851;50.232;20.364;2022-11-20T09:02:45;48.80;;;30.50;;
76117;SDS011;64851;50.232;20.364;2022-11-20T09:05:33;38.00;;;21.30;;
76117;SDS011;64851;50.232;20.364;2022-11-20T09:08:29;33.80;;;18.50;;
76117;SDS011;64851;50.232;20.364;2022-11-20T09:11:11;31.90;;;17.10;;
76117;SDS011;64851;50.232;20.364;2022-11-20T09:13:58;34.80;;;17.80;;
76117;SDS011;64851;50.232;20.364;2022-11-20T09:16:44;38.90;;;18.70;;
76117;SDS011;64851;50.232;20.364;2022-11-20T09:19:33;35.90;;;16.10;;
76117;SDS011;64851;50.232;20.364;2022-11-20T09:22:10;35.90;;;19.40;;
76117;SDS011;64851;50.232;20.364;2022-11-20T09:24:59;34.10;;;15.50;;
76117;SDS011;64851;50.232;20.364;2022-11-20T09:27:35;27.90;;;11.90;;
76117;SDS011;64851;50.232;20.364;2022-11-20T09:30:26;25.60;;;11.10;;
76117;SDS011;64851;50.232;20.364;2022-11-20T09:33:06;25.20;;;10.50;;
76117;SDS011;64851;50.232;20.364;2022-11-20T09:35:55;25.90;;;11.00;;
76117;SDS011;64851;50.232;20.364;2022-11-20T09:38:31;20.40;;;8.80;;
76117;SDS011;64851;50.232;20.364;2022-11-20T09:44:26;45.00;;;17.10;;
76117;SDS011;64851;50.232;20.364;2022-11-20T09:50:01;38.80;;;13.00;;
76117;SDS011;64851;50.232;20.364;2022-11-20T09:53:16;39.70;;;14.30;;
76117;SDS011;64851;50.232;20.364;2022-11-20T09:56:04;41.60;;;14.50;;
76117;SDS011;64851;50.232;20.364;2022-11-20T09:58:47;34.70;;;11.80;;
76117;SDS011;64851;50.232;20.364;2022-11-20T10:01:33;23.90;;;10.30;;
76117;SDS011;64851;50.232;20.364;2022-11-20T10:04:26;23.10;;;8.10;;
76117;SDS011;64851;50.232;20.364;2022-11-20T10:07:14;24.00;;;9.10;;
76117;SDS011;64851;50.232;20.364;2022-11-20T10:10:16;25.00;;;9.90;;
76117;SDS011;64851;50.232;20.364;2022-11-20T10:22:26;73.40;;;30.80;;
76117;SDS011;64851;50.232;20.364;2022-11-20T10:25:19;44.40;;;18.40;;
76117;SDS011;64851;50.232;20.364;2022-11-20T10:28:02;39.80;;;18.30;;
76117;SDS011;64851;50.232;20.364;2022-11-20T10:31:08;37.80;;;13.70;;
76117;SDS011;64851;50.232;20.364;2022-11-20T10:33:50;28.40;;;11.90;;
76117;SDS011;64851;50.232;20.364;2022-11-20T10:37:02;30.10;;;11.90;;
76117;SDS011;64851;50.232;20.364;2022-11-20T10:42:50;39.40;;;13.30;;
76117;SDS011;64851;50.232;20.364;2022-11-20T10:45:56;31.90;;;12.70;;
76117;SDS011;64851;50.232;20.364;2022-11-20T10:48:35;31.40;;;11.90;;
76117;SDS011;64851;50.232;20.364;2022-11-20T11:00:43;36.30;;;13.60;;
76117;SDS011;64851;50.232;20.364;2022-11-20T11:03:28;36.70;;;13.40;;
76117;SDS011;64851;50.232;20.364;2022-11-20T11:06:28;32.40;;;12.60;;
76117;SDS011;64851;50.232;20.364;2022-11-20T11:12:30;31.20;;;12.80;;
76117;SDS011;64851;50.232;20.364;2022-11-20T11:15:27;39.80;;;16.60;;
76117;SDS011;64851;50.232;20.364;2022-11-20T11:18:03;42.50;;;16.50;;
76117;SDS011;64851;50.232;20.364;2022-11-20T11:21:08;39.90;;;14.20;;
76117;SDS011;64851;50.232;20.364;2022-11-20T11:24:04;39.40;;;15.90;;
76117;SDS011;64851;50.232;20.364;2022-11-20T11:27:03;73.10;;;31.90;;
76117;SDS011;64851;50.232;20.364;2022-11-20T11:30:01;86.20;;;39.10;;
76117;SDS011;64851;50.232;20.364;2022-11-20T11:32:38;70.60;;;34.20;;
76117;SDS011;64851;50.232;20.364;2022-11-20T11:35:31;46.00;;;25.00;;
76117;SDS011;64851;50.232;20.364;2022-11-20T11:38:07;47.40;;;21.80;;
76117;SDS011;64851;50.232;20.364;2022-11-20T11:41:06;38.50;;;20.80;;
76117;SDS011;64851;50.232;20.364;2022-11-20T11:43:49;41.40;;;22.30;;
76117;SDS011;64851;50.232;20.364;2022-11-20T11:47:00;36.50;;;22.60;;
76117;SDS011;64851;50.232;20.364;2022-11-20T11:49:36;38.90;;;23.00;;
76117;SDS011;64851;50.232;20.364;2022-11-20T11:52:29;36.50;;;22.40;;
76117;SDS011;64851;50.232;20.364;2022-11-20T11:55:07;35.30;;;22.60;;
76117;SDS011;64851;50.232;20.364;2022-11-20T11:58:33;36.10;;;23.20;;
76117;SDS011;64851;50.232;20.364;2022-11-20T12:04:54;34.80;;;21.70;;
76117;SDS011;64851;50.232;20.364;2022-11-20T12:11:21;35.60;;;23.70;;
76117;SDS011;64851;50.232;20.364;2022-11-20T12:14:41;35.20;;;23.40;;
76117;SDS011;64851;50.232;20.364;2022-11-20T12:17:24;48.40;;;31.00;;
76117;SDS011;64851;50.232;20.364;2022-11-20T12:20:24;50.70;;;31.50;;
76117;SDS011;64851;50.232;20.364;2022-11-20T12:23:08;44.00;;;26.10;;
76117;SDS011;64851;50.232;20.364;2022-11-20T12:26:05;47.80;;;30.30;;
76117;SDS011;64851;50.232;20.364;2022-11-20T12:28:51;53.90;;;31.30;;
76117;SDS011;64851;50.232;20.364;2022-11-20T12:32:03;48.30;;;26.70;;
76117;SDS011;64851;50.232;20.364;2022-11-20T12:34:52;45.60;;;26.50;;
76117;SDS011;64851;50.232;20.364;2022-11-20T12:57:15;34.00;;;14.60;;
76117;SDS011;64851;50.232;20.364;2022-11-20T13:00:23;32.20;;;13.60;;
76117;SDS011;64851;50.232;20.364;2022-11-20T13:06:16;31.40;;;13.80;;
76117;SDS011;64851;50.232;20.364;2022-11-20T13:08:59;48.20;;;22.70;;
76117;SDS011;64851;50.232;20.364;2022-11-20T13:11:55;65.00;;;23.70;;
76117;SDS011;64851;50.232;20.364;2022-11-20T15:08:54;36.90;;;20.30;;
76117;SDS011;64851;50.232;20.364;2022-11-20T15:11:54;49.50;;;28.20;;
76117;SDS011;64851;50.232;20.364;2022-11-20T15:14:40;118.20;;;66.80;;
76117;SDS011;64851;50.232;20.364;2022-11-20T15:17:28;82.80;;;50.80;;
76117;SDS011;64851;50.232;20.364;2022-11-20T15:20:14;60.60;;;37.00;;
76117;SDS011;64851;50.232;20.364;2022-11-20T15:22:55;56.90;;;33.20;;
76117;SDS011;64851;50.232;20.364;2022-11-20T15:25:40;62.60;;;32.80;;
76117;SDS011;64851;50.232;20.364;2022-11-20T15:28:33;49.30;;;25.10;;
76117;SDS011;64851;50.232;20.364;2022-11-20T15:31:19;46.60;;;23.50;;
76117;SDS011;64851;50.232;20.364;2022-11-20T15:34:02;47.80;;;20.60;;
76117;SDS011;64851;50.232;20.364;2022-11-20T15:36:48;45.70;;;23.70;;
76117;SDS011;64851;50.232;20.364;2022-11-20T15:39:36;43.80;;;19.30;;
76117;SDS011;64851;50.232;20.364;2022-11-20T15:42:12;35.50;;;16.70;;
76117;SDS011;64851;50.232;20.364;2022-11-20T15:45:00;38.50;;;17.90;;
76117;SDS011;64851;50.232;20.364;2022-11-20T15:47:38;37.90;;;16.00;;
76117;SDS011;64851;50.232;20.364;2022-11-20T15:50:38;43.30;;;16.90;;
76117;SDS011;64851;50.232;20.364;2022-11-20T15:53:16;41.00;;;16.90;;
76117;SDS011;64851;50.232;20.364;2022-11-20T15:56:05;47.10;;;18.50;;
76117;SDS011;64851;50.232;20.364;2022-11-20T15:58:51;50.70;;;19.00;;
76117;SDS011;64851;50.232;20.364;2022-11-20T16:01:37;50.70;;;17.30;;
76117;SDS011;64851;50.232;20.364;2022-11-20T16:04:19;65.70;;;23.00;;
76117;SDS011;64851;50.232;20.364;2022-11-20T16:07:06;66.70;;;22.80;;
76117;SDS011;64851;50.232;20.364;2022-11-20T16:10:01;42.00;;;18.00;;
76117;SDS011;64851;50.232;20.364;2022-11-20T16:12:57;38.30;;;14.30;;
76117;SDS011;64851;50.232;20.364;2022-11-20T16:15:58;39.40;;;14.00;;
76117;SDS011;64851;50.232;20.364;2022-11-20T16:18:55;47.20;;;16.00;;
76117;SDS011;64851;50.232;20.364;2022-11-20T16:21:38;39.40;;;14.50;;
76117;SDS011;64851;50.232;20.364;2022-11-20T16:24:19;43.00;;;16.40;;
76117;SDS011;64851;50.232;20.364;2022-11-20T16:27:02;43.60;;;16.90;;
76117;SDS011;64851;50.232;20.364;2022-11-20T16:29:51;35.10;;;13.80;;
76117;SDS011;64851;50.232;20.364;2022-11-20T16:32:29;37.60;;;15.60;;
76117;SDS011;64851;50.232;20.364;2022-11-20T16:35:26;33.40;;;14.00;;
76117;SDS011;64851;50.232;20.364;2022-11-20T16:38:28;30.10;;;12.20;;
76117;SDS011;64851;50.232;20.364;2022-11-20T16:41:04;26.10;;;10.50;;
76117;SDS011;64851;50.232;20.364;2022-11-20T16:43:57;31.40;;;12.40;;
76117;SDS011;64851;50.232;20.364;2022-11-20T16:46:37;30.00;;;11.50;;
76117;SDS011;64851;50.232;20.364;2022-11-20T16:49:39;28.30;;;11.80;;
76117;SDS011;64851;50.232;20.364;2022-11-20T16:52:36;32.20;;;12.50;;
76117;SDS011;64851;50.232;20.364;2022-11-20T16:55:11;31.80;;;10.50;;
76117;SDS011;64851;50.232;20.364;2022-11-20T16:58:00;24.20;;;10.00;;
76117;SDS011;64851;50.232;20.364;2022-11-20T17:00:38;27.10;;;10.60;;
76117;SDS011;64851;50.232;20.364;2022-11-20T17:03:37;31.30;;;11.30;;
76117;SDS011;64851;50.232;20.364;2022-11-20T17:06:17;26.20;;;10.70;;
76117;SDS011;64851;50.232;20.364;2022-11-20T17:09:15;26.30;;;10.80;;
76117;SDS011;64851;50.232;20.364;2022-11-20T17:12:23;36.40;;;12.70;;
76117;SDS011;64851;50.232;20.364;2022-11-20T17:15:08;30.60;;;11.20;;
76117;SDS011;64851;50.232;20.364;2022-11-20T17:18:08;34.50;;;13.00;;
76117;SDS011;64851;50.232;20.364;2022-11-20T17:20:50;30.40;;;10.20;;
